Grant, NE

1:02 PM MDT on September 25, 2016 (GMT -0600)
Sisco Fertilizer | | Change Station
Active Advisory: Frost Advisory

Elev 3415 ft 40.84 °N, 101.40 °W | Updated 8 seconds ago

Clear
Clear
65.7 °F
Feels Like 65.7 °F
N
22.0
Wind Variable Wind from NW
Gusts 34.0 mph

Today
High -- | Low -- °F
--% Chance of Precip.
Yesterday
High -- | Low -- °F
Precip. -- in
Pressure 30.33 in
Visibility 10.0 miles
Clouds Clear
Dew Point 33 °F
Humidity 29%
Rainfall 0.00 in
Snow Depth Not available.
6:37 AM 6:37 PM
Waning Crescent, 25% visible
METAR KOGA 251855Z AUTO 32023G29KT 10SM CLR 21/M01 A3033 RMK AO2 T02091012
Pressure 30.33 in
Visibility 10.0 miles
Clouds Clear
Dew Point 33 °F
Humidity 29%
Rainfall 0.00 in
Snow Depth Not available.
6:37 AM 6:37 PM
Waning Crescent, 25% visible
METAR KOGA 251855Z AUTO 32023G29KT 10SM CLR 21/M01 A3033 RMK AO2 T02091012

10-Day Weather Forecast

Almanac

Astronomy

Sep. 25, 2016 Rise Set
Actual Time
Civil Twilight
Nautical Twilight
Astronomical Twilight
Moon
Length of Visible Light
Length of Day
Tomorrow will be .
, % of the Moon is Illuminated

Today's Extremes

State Highs State Lows

Community

WunderPhotos

Upload Photos

1,941,694 photos uploaded!

WunderBlog® & News

Nearby

Air Quality

  Air Quality AQ Index Pollutant
Not available.

Snow Depth

Station Depth Elevation

Earthquake Activity

City Distance Mag. Time & Date
Minimum magnitude displayed is 2.5.

Coastal Water Temperatures

Place Temperature

Stations

Nearby Weather Stations

Station Location Temp. Windchill Dew Point Humidity Wind Precip. Elev Updated Type
                   

Watches & Warnings

Frost Advisory
Issued: 12:57 PM MDT Sep. 25, 2016 – National Weather Service

... Frost advisory in effect from 4 am CDT /3 am MDT/ to 8 am CDT
/7 am MDT/ Monday...

The National Weather Service in North Platte has issued a frost
advisory... which is in effect from 4 am CDT /3 am MDT/ to 8 am
CDT /7 am MDT/ Monday.

* Temperature: low temperatures are forecast to fall into the
lower to mid 30s around dawn. The greatest probability of frost
will be in low lying areas and along river valleys.

* Impacts: sensitive outdoor plants may be killed or severely
damaged if left uncovered.

Precautionary/preparedness actions...

A frost advisory means that widespread frost is expected.
Sensitive outdoor plants may be killed if left uncovered.



Sjacobs